Metairie, LA (70011)

8:03 PM CST on December 28, 2014 (GMT -0600)
Metairie Wx Central | Change Station
CLOSE
Current Station
Personal Weather Station
Location: Metairie, LA
Elevation: 10 ft
Nearby Weather Stations

Elev 10 ft 30.00 °N, 90.17 °W | Updated 11 minutes ago

Overcast
Overcast
56.8 °F
Feels Like 56.8 °F
N
2.0
Wind Variable Wind from North
Gusts 10.0 mph

Today
High -- | Low -- °F
--% Chance of Precip.
Yesterday
High -- | Low -- °F
Precip. -- in
6:55 AM 5:09 PM
First Quarter, 53% visible
Pressure 30.10 in
Visibility 10.0 miles
Clouds Scattered Clouds 700 ft
Overcast 3300 ft
Dew Point 56 °F
Humidity 96%
Rainfall 0.00 in
Snow Depth Not available.
UV 0 out of 12
Pollen 1.60 out of 12
Air Quality Not available.
Flu Activity Not available.
METAR KMSY 290153Z 32005KT 10SM SCT007 OVC033 14/12 A3009 RMK AO2 RAE10 SLP192 P0001 T01390122 $

More Conditions Fewer Conditions

Pressure 30.10 in
Visibility 10.0 miles
Clouds Scattered Clouds 700 ft
Overcast 3300 ft
Dew Point 56 °F
Humidity 96%
Rainfall 0.00 in
Snow Depth Not available.
UV 0 out of 12
Pollen 1.60 out of 12
Air Quality Not available.
Flu Activity Not available.
METAR KMSY 290153Z 32005KT 10SM SCT007 OVC033 14/12 A3009 RMK AO2 RAE10 SLP192 P0001 T01390122 $

More Conditions Fewer Conditions

10-Day Weather Forecast

Almanac

Astronomy

Dec. 28, 2014 Rise Set
Actual Time
Civil Twilight
Nautical Twilight
Astronomical Twilight
Moon
Length of Visible Light
Length of Day
Tomorrow will be .
, % of the Moon is Illuminated

Today's Extremes

State Highs State Lows

Community

WunderPhotos

Upload Photos

1,781,492 photos uploaded!

WunderBlogs® & News

Nearby

Air Quality

  Air Quality AQ Index Pollutant
Not available.

Snow Depth

Station Depth Elevation

Earthquake Activity

City Distance Mag. Time & Date
Minimum magnitude displayed is 2.5.

Coastal Water Temperatures

Place Temperature

Nearby Weather Stations